Time;durP1;ratioP1;P1;durP2;ratioP2;P2;SDS_P1;SDS_P2;PMS_P1;PMS_P2;Temp;Humidity;BMP_temperature;BMP_pressure;BME280_temperature;BME280_humidity;BME280_pressure;Samples;Min_cycle;Max_cycle;Signal;HPM_P1;HPM_P2
2022/01/31 00:00:19;;;;;;;7.40;2.80;;;;;;;4.10;59.78;99787.59;5088264;28;20089;-22
2022/01/31 00:02:46;;;;;;;12.52;3.72;;;;;;;3.93;59.85;99742.13;5087807;28;20031;-21
2022/01/31 00:05:11;;;;;;;9.55;3.83;;;;;;;3.99;60.48;99765.13;5086495;28;20032;-21
2022/01/31 00:07:37;;;;;;;5.72;3.13;;;;;;;3.92;60.37;99759.75;5088413;28;20101;-21
2022/01/31 00:10:07;;;;;;;10.60;3.05;;;;;;;3.92;60.36;99774.75;5087950;28;20541;-21
2022/01/31 00:12:39;;;;;;;10.00;3.63;;;;;;;3.94;60.83;99773.59;5088354;28;20027;-21
2022/01/31 00:15:05;;;;;;;9.68;3.20;;;;;;;3.93;60.84;99771.94;5070785;28;20120;-21
2022/01/31 00:17:30;;;;;;;11.55;3.22;;;;;;;3.94;60.71;99763.03;5086708;28;20023;-23
2022/01/31 00:19:56;;;;;;;9.23;3.42;;;;;;;4.05;60.10;99758.31;5088001;28;20040;-21
2022/01/31 00:22:21;;;;;;;9.35;3.92;;;;;;;4.22;60.32;99775.56;5086422;28;20027;-21
2022/01/31 00:24:47;;;;;;;8.60;3.03;;;;;;;4.22;60.30;99786.13;5088104;28;20043;-21
2022/01/31 00:27:12;;;;;;;7.43;2.70;;;;;;;4.23;60.33;99782.50;5086314;28;20039;-22
2022/01/31 00:29:38;;;;;;;10.10;3.47;;;;;;;4.33;59.77;99761.91;5087913;28;20062;-21
2022/01/31 00:32:04;;;;;;;13.45;5.68;;;;;;;4.18;59.38;99753.19;5087725;28;20036;-21
2022/01/31 00:34:30;;;;;;;8.15;3.42;;;;;;;4.24;59.65;99757.72;5086213;28;20035;-21
2022/01/31 00:36:56;;;;;;;11.40;3.40;;;;;;;4.25;59.03;99758.53;5086577;28;20035;-21
2022/01/31 00:39:22;;;;;;;8.25;3.22;;;;;;;4.37;58.44;99759.69;5087826;28;20035;-21
2022/01/31 00:41:47;;;;;;;15.10;3.17;;;;;;;4.38;57.91;99748.94;5087671;28;20038;-21
2022/01/31 00:46:45;;;;;;;9.63;3.42;;;;;;;4.43;57.62;99767.69;5087799;28;20024;-21
2022/01/31 00:49:17;;;;;;;10.70;3.33;;;;;;;4.54;56.90;99737.34;5086100;28;20039;-21
2022/01/31 00:51:43;;;;;;;12.77;3.08;;;;;;;4.43;57.35;99743.94;5087902;28;20032;-22
2022/01/31 00:54:08;;;;;;;11.02;3.72;;;;;;;4.37;57.39;99747.31;5087401;28;20499;-22
2022/01/31 00:56:33;;;;;;;13.10;3.22;;;;;;;4.42;56.98;99742.28;5086455;28;20034;-21
2022/01/31 00:58:59;;;;;;;9.85;3.60;;;;;;;4.33;57.37;99713.53;5087462;28;20570;-22
2022/01/31 01:01:24;;;;;;;3.97;2.33;;;;;;;4.35;56.69;99738.78;5087760;28;20404;-22
2022/01/31 01:03:50;;;;;;;10.27;3.05;;;;;;;4.49;56.13;99749.47;5087763;28;20044;-21
2022/01/31 01:06:15;;;;;;;7.60;2.95;;;;;;;4.51;56.01;99758.00;5087590;28;20035;-21
2022/01/31 01:08:41;;;;;;;13.82;3.45;;;;;;;4.60;55.85;99746.34;5086187;28;20035;-21
2022/01/31 01:11:06;;;;;;;12.82;3.58;;;;;;;4.50;56.04;99738.72;5087425;28;20028;-21
2022/01/31 01:13:32;;;;;;;11.57;3.75;;;;;;;4.42;56.12;99736.19;5087791;28;20058;-21
2022/01/31 01:15:57;;;;;;;7.07;2.97;;;;;;;4.44;55.80;99742.09;5089706;28;20028;-21
2022/01/31 01:18:23;;;;;;;9.88;2.35;;;;;;;4.41;55.96;99732.75;5092039;28;20044;-22
2022/01/31 01:20:48;;;;;;;13.40;2.58;;;;;;;4.36;56.56;99726.38;5091680;28;20503;-21
2022/01/31 01:23:14;;;;;;;8.23;2.83;;;;;;;4.40;56.97;99730.28;5091493;28;20040;-22
2022/01/31 01:25:39;;;;;;;9.27;3.22;;;;;;;4.14;57.36;99712.31;5091285;28;20060;-21
2022/01/31 01:28:04;;;;;;;5.85;2.45;;;;;;;4.22;57.22;99713.03;5091357;28;20027;-22
2022/01/31 01:30:30;;;;;;;13.43;3.53;;;;;;;4.10;57.74;99732.16;5091231;28;20463;-22
2022/01/31 01:35:30;;;;;;;12.70;3.08;;;;;;;3.91;58.26;99742.28;5091574;28;20032;-22
2022/01/31 01:37:56;;;;;;;10.05;3.20;;;;;;;3.97;58.45;99738.91;5091076;28;20028;-22
2022/01/31 01:40:21;;;;;;;12.65;3.72;;;;;;;3.91;58.75;99721.19;5091316;28;20035;-21
2022/01/31 01:42:47;;;;;;;9.60;2.67;;;;;;;3.76;58.84;99704.53;5090986;28;20036;-21
2022/01/31 01:45:12;;;;;;;16.60;4.38;;;;;;;3.98;58.42;99716.81;5091168;28;20085;-21
2022/01/31 01:47:38;;;;;;;10.43;3.50;;;;;;;3.85;59.14;99714.00;5091102;28;20024;-21
2022/01/31 01:50:04;;;;;;;12.20;3.60;;;;;;;3.80;58.42;99697.91;5089529;28;20040;-21
2022/01/31 01:52:29;;;;;;;7.28;3.03;;;;;;;3.95;58.27;99711.91;5089565;28;20032;-21
2022/01/31 01:54:54;;;;;;;17.05;3.55;;;;;;;3.90;58.13;99724.00;5090808;28;20032;-22
2022/01/31 01:57:22;;;;;;;10.23;3.03;;;;;;;3.93;58.39;99729.72;5090932;28;20027;-21
2022/01/31 01:59:54;;;;;;;11.10;3.38;;;;;;;4.01;57.23;99727.00;5090305;28;20024;-22
2022/01/31 02:02:19;;;;;;;17.52;3.03;;;;;;;4.05;56.55;99732.72;5089655;28;20830;-21
2022/01/31 02:04:45;;;;;;;10.95;3.20;;;;;;;4.05;56.13;99716.09;5072539;28;20039;-22
2022/01/31 02:07:12;;;;;;;8.45;3.00;;;;;;;4.07;56.09;99725.44;5090863;28;20487;-21
2022/01/31 02:09:43;;;;;;;13.13;4.57;;;;;;;4.08;56.04;99729.69;5089221;28;20028;-21
2022/01/31 02:12:09;;;;;;;9.85;2.60;;;;;;;3.98;55.57;99708.06;5073353;28;20043;-21
2022/01/31 02:14:35;;;;;;;9.65;2.65;;;;;;;4.03;55.57;99740.81;5090315;28;20032;-21
2022/01/31 02:17:00;;;;;;;12.88;2.95;;;;;;;4.05;55.58;99726.63;5090782;28;20028;-21
2022/01/31 02:19:26;;;;;;;10.50;3.05;;;;;;;4.06;54.34;99722.97;5089247;28;20138;-21
2022/01/31 02:21:53;;;;;;;9.07;2.63;;;;;;;3.98;55.02;99724.75;5090115;28;20028;-21
2022/01/31 02:24:18;;;;;;;7.07;2.90;;;;;;;4.11;53.95;99737.25;5090086;28;20056;-22
2022/01/31 02:26:44;;;;;;;7.00;2.45;;;;;;;4.14;53.54;99736.06;5089836;28;20555;-21
2022/01/31 02:29:12;;;;;;;9.38;3.08;;;;;;;4.15;53.40;99753.56;5090025;28;20059;-22
2022/01/31 02:31:47;;;;;;;;;;;;;;;4.12;53.48;99746.00;5090750;28;20042;-21
2022/01/31 02:34:13;;;;;;;9.52;2.25;;;;;;;3.91;53.37;99726.47;5090106;28;19965;-21
2022/01/31 02:36:38;;;;;;;9.85;2.67;;;;;;;4.17;52.90;99751.56;5088716;28;20032;-22
2022/01/31 02:39:04;;;;;;;10.10;2.50;;;;;;;4.10;53.82;99751.44;5088769;28;20043;-21
2022/01/31 02:41:30;;;;;;;10.15;2.45;;;;;;;4.04;53.58;99762.75;5090220;28;20023;-21
2022/01/31 02:43:56;;;;;;;6.05;2.65;;;;;;;3.92;53.41;99769.47;5090083;28;20476;-22
2022/01/31 02:46:26;;;;;;;11.75;2.92;;;;;;;3.86;53.42;99743.84;5072149;28;20496;-22
2022/01/31 02:48:54;;;;;;;5.88;2.58;;;;;;;3.92;53.57;99759.75;5088908;28;20769;-22
2022/01/31 02:51:25;;;;;;;10.70;2.80;;;;;;;3.96;53.46;99758.41;5089956;28;20039;-21
2022/01/31 02:53:50;;;;;;;9.40;2.67;;;;;;;4.06;52.58;99754.66;5088113;28;20047;-20
2022/01/31 02:56:15;;;;;;;15.68;3.03;;;;;;;3.90;53.10;99750.38;5089775;28;20498;-21
2022/01/31 02:58:41;;;;;;;12.05;3.20;;;;;;;4.11;52.99;99770.75;5089723;28;20032;-21
2022/01/31 03:01:07;;;;;;;10.55;2.42;;;;;;;4.10;53.15;99771.75;5090071;28;20039;-21
2022/01/31 03:03:32;;;;;;;9.13;2.60;;;;;;;4.12;52.63;99775.03;5088024;28;20404;-21
2022/01/31 03:05:58;;;;;;;4.68;2.10;;;;;;;4.00;52.50;99757.03;5089168;28;20032;-22
2022/01/31 03:08:24;;;;;;;11.88;3.08;;;;;;;4.08;52.65;99779.84;5089230;28;20032;-22
2022/01/31 03:10:50;;;;;;;11.63;3.72;;;;;;;4.19;52.02;99773.31;5089211;28;20032;-21
2022/01/31 03:13:15;;;;;;;5.43;2.10;;;;;;;4.12;52.34;99780.31;5089460;28;20032;-21
2022/01/31 03:15:41;;;;;;;8.95;2.45;;;;;;;4.09;51.77;99785.97;5089352;28;20035;-21
2022/01/31 03:18:07;;;;;;;9.95;2.70;;;;;;;4.05;51.48;99776.78;5089272;28;20028;-21
2022/01/31 03:20:32;;;;;;;5.93;2.17;;;;;;;3.97;52.08;99762.66;5089287;28;20028;-21
2022/01/31 03:22:58;;;;;;;11.15;2.65;;;;;;;3.81;52.99;99747.84;5087921;28;20032;-21
2022/01/31 03:25:24;;;;;;;11.88;2.70;;;;;;;4.00;51.59;99757.03;5088642;28;20067;-21
2022/01/31 03:27:49;;;;;;;7.32;1.98;;;;;;;3.99;51.88;99781.75;5087841;28;20032;-21
2022/01/31 03:30:16;;;;;;;9.07;3.05;;;;;;;4.08;51.75;99789.59;5089209;28;20028;-22
2022/01/31 03:32:42;;;;;;;8.75;2.38;;;;;;;4.05;51.99;99780.22;5089278;28;20034;-22
2022/01/31 03:35:07;;;;;;;6.97;2.17;;;;;;;3.98;52.61;99787.22;5089005;28;20416;-22
2022/01/31 03:37:34;;;;;;;5.38;2.00;;;;;;;3.94;52.41;99805.25;5086806;28;20114;-21
2022/01/31 03:39:59;;;;;;;5.70;2.35;;;;;;;3.88;52.59;99794.59;5088585;28;20035;-21
2022/01/31 03:42:25;;;;;;;8.82;3.30;;;;;;;3.92;52.55;99801.94;5087888;28;20032;-21
2022/01/31 03:44:51;;;;;;;6.55;2.30;;;;;;;3.92;52.61;99816.97;5089022;28;20028;-22
2022/01/31 03:47:16;;;;;;;7.93;2.30;;;;;;;3.91;52.51;99808.25;5088740;28;20040;-21
2022/01/31 03:49:42;;;;;;;8.63;2.55;;;;;;;3.88;53.22;99790.13;5088737;28;20036;-23
2022/01/31 03:52:07;;;;;;;5.47;1.73;;;;;;;3.84;53.29;99770.38;5088457;28;20035;-22
2022/01/31 03:54:33;;;;;;;8.75;2.35;;;;;;;3.73;52.93;99773.50;5088512;28;20100;-21
2022/01/31 03:56:58;;;;;;;9.80;2.65;;;;;;;3.72;53.64;99785.03;5087349;28;20032;-22
2022/01/31 03:59:24;;;;;;;7.88;2.83;;;;;;;3.86;53.54;99812.41;5087219;28;20036;-22
2022/01/31 04:01:49;;;;;;;7.65;2.35;;;;;;;3.85;53.25;99803.69;5086898;28;20101;-22
2022/01/31 04:04:15;;;;;;;8.93;3.15;;;;;;;3.85;52.72;99823.97;5088529;28;20038;-22
2022/01/31 04:06:40;;;;;;;8.43;2.08;;;;;;;3.85;53.32;99843.25;5088449;28;20089;-22
2022/01/31 04:09:06;;;;;;;5.50;1.75;;;;;;;3.88;53.33;99842.88;5088155;28;20032;-21
2022/01/31 04:11:31;;;;;;;4.90;1.90;;;;;;;3.82;53.38;99827.78;5087182;28;20051;-25
2022/01/31 04:13:57;;;;;;;10.00;2.50;;;;;;;3.82;53.80;99830.41;5088010;28;20483;-21
2022/01/31 04:16:22;;;;;;;4.65;2.03;;;;;;;3.71;53.53;99838.78;5088416;28;20419;-21
2022/01/31 04:18:48;;;;;;;11.25;2.35;;;;;;;3.74;53.67;99844.53;5088312;28;20488;-21
2022/01/31 04:21:14;;;;;;;11.40;2.67;;;;;;;3.75;53.57;99840.88;5086803;28;20035;-22
2022/01/31 04:23:40;;;;;;;7.40;2.60;;;;;;;3.72;53.61;99843.06;5086543;28;20036;-22
2022/01/31 04:26:13;;;;;;;17.95;3.00;;;;;;;3.63;53.53;99821.22;5086027;28;20078;-21
2022/01/31 04:28:43;;;;;;;7.63;2.80;;;;;;;3.58;54.41;99840.22;5087719;28;20020;-21
2022/01/31 04:31:54;;;;;;;7.65;1.60;;;;;;;3.62;53.78;99844.13;5070386;28;20135;-21
2022/01/31 04:33:54;;;;;;;7.55;2.17;;;;;;;3.61;54.23;99855.66;5080021;28;20075;-21
2022/01/31 04:36:20;;;;;;;9.60;2.22;;;;;;;3.55;54.13;99856.38;5088231;28;20063;-22
2022/01/31 04:38:46;;;;;;;9.63;2.08;;;;;;;3.67;54.31;99853.34;5088206;28;20054;-21
2022/01/31 04:41:12;;;;;;;9.68;3.50;;;;;;;3.36;54.32;99820.00;5087603;28;20036;-22
2022/01/31 04:43:38;;;;;;;14.73;2.75;;;;;;;3.55;53.97;99861.66;5087988;28;20039;-21
2022/01/31 04:46:05;;;;;;;7.20;2.70;;;;;;;3.70;53.69;99860.88;5086276;28;20031;-21
2022/01/31 04:48:31;;;;;;;11.60;2.67;;;;;;;3.72;53.12;99857.09;5086300;28;20024;-21
2022/01/31 04:50:56;;;;;;;8.13;2.40;;;;;;;3.77;53.02;99852.06;5087931;28;20043;-21
2022/01/31 04:53:22;;;;;;;10.20;3.67;;;;;;;3.83;53.21;99859.25;5087733;28;20058;-21
2022/01/31 04:55:47;;;;;;;13.15;3.42;;;;;;;3.85;52.89;99859.09;5087616;28;20058;-21
2022/01/31 04:58:13;;;;;;;9.05;2.65;;;;;;;3.71;53.39;99871.25;5087719;28;20032;-21
2022/01/31 05:00:38;;;;;;;10.95;2.38;;;;;;;3.49;53.29;99853.66;5087505;28;20424;-22
2022/01/31 05:03:10;;;;;;;5.65;2.67;;;;;;;3.68;53.90;99878.69;5085976;28;20032;-22
2022/01/31 05:05:35;;;;;;;14.38;3.17;;;;;;;3.68;52.94;99883.97;5086432;28;20024;-21
2022/01/31 05:08:01;;;;;;;10.35;2.80;;;;;;;3.68;53.21;99879.53;5087132;28;20035;-21
2022/01/31 05:10:26;;;;;;;8.13;2.05;;;;;;;3.55;53.62;99885.38;5087461;28;20036;-21
2022/01/31 05:12:51;;;;;;;6.47;1.83;;;;;;;3.53;53.01;99876.84;5087394;28;20054;-21
2022/01/31 05:15:17;;;;;;;7.82;2.47;;;;;;;3.58;53.05;99879.78;5087455;28;20031;-21
2022/01/31 05:17:42;;;;;;;7.20;2.10;;;;;;;3.52;53.58;99875.22;5087415;28;20081;-23
2022/01/31 05:20:08;;;;;;;7.90;1.90;;;;;;;3.44;52.95;99856.81;5087509;28;20484;-21
2022/01/31 05:22:33;;;;;;;11.32;2.83;;;;;;;3.46;52.97;99870.66;5087877;28;20032;-21
2022/01/31 05:24:59;;;;;;;11.05;2.50;;;;;;;3.51;52.97;99878.84;5087303;28;20043;-22
2022/01/31 05:27:24;;;;;;;10.82;2.10;;;;;;;3.61;52.55;99895.22;5087645;28;20024;-22
2022/01/31 05:29:50;;;;;;;7.65;1.98;;;;;;;3.62;52.74;99902.16;5087077;28;20044;-21
2022/01/31 05:32:15;;;;;;;5.40;2.00;;;;;;;3.48;52.25;99842.28;5087242;28;20035;-21
2022/01/31 05:34:41;;;;;;;6.85;2.33;;;;;;;3.67;52.38;99890.25;5087565;28;20036;-21
2022/01/31 05:37:06;;;;;;;6.70;2.20;;;;;;;3.63;52.26;99879.22;5087429;28;20032;-22
2022/01/31 05:39:32;;;;;;;6.00;2.53;;;;;;;3.58;51.71;99882.41;5087258;28;20105;-21
2022/01/31 05:41:57;;;;;;;10.00;2.40;;;;;;;3.72;52.09;99901.06;5085725;28;20028;-21
2022/01/31 05:44:23;;;;;;;8.68;1.98;;;;;;;3.69;51.98;99890.91;5087341;28;20035;-22
2022/01/31 05:46:50;;;;;;;6.18;2.15;;;;;;;3.73;52.16;99892.19;5085613;28;20032;-21
2022/01/31 05:49:16;;;;;;;4.72;1.80;;;;;;;3.66;51.89;99907.06;5086064;28;20571;-21
2022/01/31 05:52:01;;;;;;;8.98;2.17;;;;;;;3.70;51.69;99895.16;5086987;28;20036;-21
2022/01/31 05:54:27;;;;;;;7.72;2.20;;;;;;;3.73;51.69;99902.72;5087188;28;20570;-21
2022/01/31 05:56:52;;;;;;;9.32;3.20;;;;;;;3.67;52.14;99892.88;5068724;28;20123;-21
2022/01/31 05:59:18;;;;;;;8.23;1.83;;;;;;;3.73;51.79;99913.28;5086492;28;20078;-21
2022/01/31 06:01:43;;;;;;;8.60;2.35;;;;;;;3.59;51.39;99891.94;5090479;28;20036;-21
2022/01/31 06:04:09;;;;;;;6.50;2.08;;;;;;;3.62;52.36;99915.34;5089728;28;20024;-21
2022/01/31 06:06:34;;;;;;;8.57;2.47;;;;;;;3.70;51.90;99916.25;5090862;28;20508;-21
2022/01/31 06:09:00;;;;;;;14.00;2.55;;;;;;;3.70;51.89;99918.91;5090697;28;20028;-21
2022/01/31 06:11:26;;;;;;;7.10;2.60;;;;;;;3.60;51.98;99909.41;5089358;28;20043;-21
2022/01/31 06:13:54;;;;;;;10.00;2.80;;;;;;;3.83;51.30;99937.59;5088677;28;20055;-21
2022/01/31 06:16:20;;;;;;;;;;;;;;;3.94;51.05;99942.44;5073348;28;20027;-22
2022/01/31 06:18:45;;;;;;;9.00;2.55;;;;;;;3.98;50.57;99951.66;5089242;28;19934;-21
2022/01/31 06:21:12;;;;;;;8.40;3.28;;;;;;;3.98;50.75;99946.38;5089348;28;20039;-22
2022/01/31 06:23:38;;;;;;;10.52;2.78;;;;;;;4.10;50.43;99951.19;5090336;28;20069;-21
2022/01/31 06:26:03;;;;;;;13.63;3.65;;;;;;;4.16;50.25;99934.66;5090258;28;20052;-21
2022/01/31 06:28:29;;;;;;;7.75;2.22;;;;;;;4.27;49.83;99943.94;5090163;28;20043;-21
2022/01/31 06:30:54;;;;;;;3.63;1.83;;;;;;;4.24;49.12;99939.84;5090252;28;20039;-22
2022/01/31 06:33:20;;;;;;;6.75;2.50;;;;;;;4.32;49.43;99950.31;5090476;28;20036;-21
2022/01/31 06:35:47;;;;;;;5.82;2.00;;;;;;;4.29;48.89;99945.41;5088599;28;20024;-21
2022/01/31 06:38:12;;;;;;;6.93;2.28;;;;;;;4.36;48.90;99951.59;5090089;28;20043;-21
2022/01/31 06:40:38;;;;;;;10.90;2.92;;;;;;;4.43;49.56;99962.25;5089992;28;20031;-21
2022/01/31 06:43:03;;;;;;;8.13;2.35;;;;;;;4.54;49.59;99947.78;5089765;28;20020;-21
2022/01/31 06:45:29;;;;;;;10.60;2.08;;;;;;;4.45;48.63;99930.38;5089919;28;20024;-21
2022/01/31 06:47:54;;;;;;;9.10;2.45;;;;;;;4.66;48.65;99934.94;5088482;28;20036;-21
2022/01/31 06:50:19;;;;;;;7.40;2.42;;;;;;;4.69;47.99;99940.66;5090050;28;20028;-21
2022/01/31 06:52:48;;;;;;;8.88;2.58;;;;;;;4.88;48.53;99934.00;5089760;28;20028;-22
2022/01/31 06:55:19;;;;;;;7.03;1.98;;;;;;;4.95;48.14;99940.19;5089794;28;20114;-21
2022/01/31 06:57:45;;;;;;;5.28;1.98;;;;;;;4.95;47.54;99942.03;5089208;28;20046;-21
2022/01/31 07:00:12;;;;;;;11.93;3.10;;;;;;;5.07;47.45;99944.97;5090289;28;20043;-21
2022/01/31 07:02:37;;;;;;;11.68;3.25;;;;;;;5.07;47.38;99942.34;5071649;28;20031;-21
2022/01/31 07:05:03;;;;;;;6.95;2.70;;;;;;;5.06;47.09;99946.81;5089720;28;20059;-22
2022/01/31 07:07:29;;;;;;;16.80;5.45;;;;;;;5.09;47.80;99949.09;5088219;28;20107;-21
2022/01/31 07:09:54;;;;;;;5.63;2.38;;;;;;;5.24;46.90;99954.34;5089299;28;20112;-21
2022/01/31 07:12:23;;;;;;;7.35;3.45;;;;;;;5.33;47.90;99952.38;5088240;28;20035;-21
2022/01/31 07:14:49;;;;;;;10.15;3.00;;;;;;;5.10;46.59;99941.97;5088325;28;20454;-22
2022/01/31 07:17:14;;;;;;;9.52;2.55;;;;;;;5.31;46.50;99954.41;5089529;28;20484;-22
2022/01/31 07:19:41;;;;;;;8.20;2.22;;;;;;;5.23;47.30;99940.31;5089560;28;20036;-21
2022/01/31 07:22:10;;;;;;;6.80;1.95;;;;;;;5.34;45.81;99954.84;5088961;28;20036;-20
2022/01/31 07:27:02;;;;;;;7.18;1.92;;;;;;;5.14;46.88;99904.41;5088744;28;20056;-21
2022/01/31 07:29:29;;;;;;;9.32;3.55;;;;;;;5.54;46.34;99928.63;5052161;28;20115;-21
2022/01/31 07:31:55;;;;;;;6.07;2.30;;;;;;;5.51;45.34;99928.16;5068331;28;20554;-21
2022/01/31 07:34:20;;;;;;;5.97;2.03;;;;;;;5.58;46.25;99929.88;5068499;28;20029;-21
2022/01/31 07:36:46;;;;;;;9.02;2.70;;;;;;;5.61;45.61;99916.25;5067007;28;20062;-22
2022/01/31 07:39:13;;;;;;;6.53;2.47;;;;;;;5.56;46.06;99920.50;5068412;28;20052;-21
2022/01/31 07:41:38;;;;;;;6.28;2.45;;;;;;;5.68;45.37;99902.25;5068466;28;20036;-22
2022/01/31 07:44:04;;;;;;;6.53;2.90;;;;;;;5.63;45.02;99884.31;5068013;28;20503;-21
2022/01/31 07:46:30;;;;;;;5.45;2.63;;;;;;;5.87;45.91;99901.63;5067912;28;20111;-21
2022/01/31 07:48:55;;;;;;;6.05;2.50;;;;;;;5.80;45.07;99911.31;5068245;28;20044;-21
2022/01/31 07:51:21;;;;;;;7.93;1.90;;;;;;;5.94;44.39;99936.88;5068093;28;20025;-22
2022/01/31 07:53:46;;;;;;;7.45;2.20;;;;;;;5.66;44.66;99930.72;5067984;28;20028;-21
2022/01/31 07:56:14;;;;;;;7.45;2.08;;;;;;;5.72;45.50;99935.25;5066467;28;20036;-21
2022/01/31 07:58:40;;;;;;;4.10;1.83;;;;;;;5.89;45.14;99933.19;5068263;28;20111;-21
2022/01/31 08:01:05;;;;;;;7.07;2.83;;;;;;;5.87;44.86;99933.38;5050040;28;20116;-21
2022/01/31 08:03:31;;;;;;;11.85;3.95;;;;;;;6.07;45.28;99938.03;5067968;28;20082;-21
2022/01/31 08:05:57;;;;;;;6.38;1.85;;;;;;;6.27;44.79;99928.38;5067748;28;20117;-21
2022/01/31 08:08:24;;;;;;;8.50;2.65;;;;;;;6.41;44.06;99914.19;5066397;28;20078;-21
2022/01/31 08:10:50;;;;;;;5.15;2.05;;;;;;;6.38;43.76;99909.31;5067817;28;20471;-22
2022/01/31 08:13:15;;;;;;;4.40;1.95;;;;;;;6.30;43.92;99922.72;5066471;28;20060;-22
2022/01/31 08:15:59;;;;;;;5.30;1.80;;;;;;;6.24;42.63;99897.00;5067772;28;20082;-21
2022/01/31 08:18:24;;;;;;;6.15;2.38;;;;;;;6.26;43.12;99900.28;5067729;28;20130;-21
2022/01/31 08:20:50;;;;;;;6.00;1.80;;;;;;;6.29;43.40;99883.97;5067670;28;20488;-21
2022/01/31 08:23:15;;;;;;;7.20;2.35;;;;;;;6.41;43.07;99882.41;5067212;28;20044;-21
2022/01/31 08:25:47;;;;;;;5.30;1.70;;;;;;;6.46;42.35;99867.78;5067254;28;20056;-21
2022/01/31 08:28:12;;;;;;;6.85;1.77;;;;;;;6.46;42.21;99884.50;5067268;28;20032;-22
2022/01/31 08:31:02;;;;;;;9.27;3.20;;;;;;;6.65;42.66;99890.91;5065954;28;20401;-22
2022/01/31 10:59:36;;;;;;;10.77;4.50;;;;;;;9.74;31.24;99749.81;4791627;27;8383064;-22
2022/01/31 11:02:04;;;;;;;4.53;1.60;;;;;;;9.82;30.39;99738.88;5098623;28;20123;-21
2022/01/31 11:04:39;;;;;;;7.97;3.17;;;;;;;10.08;30.42;99723.63;5089148;28;20101;-21
2022/01/31 11:07:07;;;;;;;7.25;2.33;;;;;;;10.58;28.36;99694.06;5084271;28;20036;-21
2022/01/31 11:09:33;;;;;;;9.27;2.83;;;;;;;10.75;29.27;99697.72;5092357;28;20099;-20
2022/01/31 11:11:58;;;;;;;6.80;1.98;;;;;;;10.60;29.90;99697.31;5092914;28;20111;-22
2022/01/31 11:14:24;;;;;;;8.60;2.35;;;;;;;10.32;30.71;99680.09;5093303;28;20771;-20
2022/01/31 11:16:49;;;;;;;7.85;2.50;;;;;;;10.22;30.27;99685.13;5091835;28;20098;-20
2022/01/31 11:19:18;;;;;;;4.65;1.67;;;;;;;10.22;29.20;99679.78;5093615;28;20123;-21
2022/01/31 11:21:45;;;;;;;5.93;1.73;;;;;;;11.08;29.08;99688.34;5093554;28;20445;-21
2022/01/31 11:24:18;;;;;;;8.00;2.73;;;;;;;11.50;28.89;99690.06;5091608;28;20032;-21
2022/01/31 11:26:47;;;;;;;7.13;2.00;;;;;;;11.57;28.56;99678.22;5088515;28;20423;-20
2022/01/31 11:29:13;;;;;;;6.95;1.63;;;;;;;11.65;28.36;99664.50;5083294;28;20032;-21
2022/01/31 11:31:38;;;;;;;7.60;2.00;;;;;;;11.20;28.73;99643.78;5081937;28;20036;-20
2022/01/31 11:34:05;;;;;;;6.47;1.70;;;;;;;11.71;27.34;99653.91;5081143;28;20040;-20
2022/01/31 11:36:37;;;;;;;9.57;2.10;;;;;;;11.60;27.21;99634.22;5083310;28;20119;-20
2022/01/31 11:39:06;;;;;;;5.57;2.08;;;;;;;11.22;28.35;99633.69;5082003;28;20035;-20
2022/01/31 11:41:33;;;;;;;5.88;2.22;;;;;;;11.41;28.13;99650.38;5076614;28;20086;-21
2022/01/31 11:44:01;;;;;;;4.82;1.95;;;;;;;11.48;27.86;99650.25;5085540;28;20028;-22
2022/01/31 11:46:27;;;;;;;10.43;3.08;;;;;;;11.58;28.33;99623.75;5075942;28;20024;-20
2022/01/31 11:48:53;;;;;;;11.13;3.47;;;;;;;11.22;28.06;99624.88;5075568;28;20019;-20
2022/01/31 11:51:19;;;;;;;7.22;2.50;;;;;;;11.27;28.79;99608.97;5091803;28;20032;-21
2022/01/31 11:53:45;;;;;;;9.20;3.70;;;;;;;11.95;30.30;99603.91;5091882;28;20027;-21
2022/01/31 11:56:22;;;;;;;44.97;27.73;;;;;;;12.18;28.71;99611.84;5092035;28;20031;-21
2022/01/31 11:58:50;;;;;;;8.80;3.50;;;;;;;12.17;27.68;99612.06;5088558;28;20063;-21
2022/01/31 12:01:15;;;;;;;6.47;2.97;;;;;;;12.27;27.60;99588.19;5092753;28;20047;-21
2022/01/31 12:03:54;;;;;;;6.53;2.13;;;;;;;12.13;27.04;99608.25;5092961;28;20438;-21
2022/01/31 12:06:25;;;;;;;6.95;2.47;;;;;;;11.44;28.64;99571.66;5074087;28;20180;-21
2022/01/31 12:09:03;;;;;;;7.50;2.00;;;;;;;11.73;27.08;99577.84;5088328;28;20500;-21
2022/01/31 12:11:30;;;;;;;15.80;5.72;;;;;;;12.23;27.33;99576.38;5075911;28;20384;-21
2022/01/31 12:14:00;;;;;;;6.22;1.80;;;;;;;12.05;26.17;99590.75;5054654;28;20072;-21
2022/01/31 12:22:05;;;;;;;5.03;1.85;;;;;;;12.81;25.98;99577.81;5014400;28;20120;-20
2022/01/31 12:24:38;;;;;;;4.97;1.50;;;;;;;13.19;26.75;99583.41;5045479;28;20040;-21
2022/01/31 12:27:07;;;;;;;7.03;2.40;;;;;;;13.63;26.23;99575.44;5077774;28;20084;-21
2022/01/31 12:29:37;;;;;;;11.00;3.42;;;;;;;13.71;26.30;99574.16;5071020;28;20085;-21
2022/01/31 12:32:19;;;;;;;7.40;1.95;;;;;;;14.06;24.63;99577.22;5073252;28;20036;-21
2022/01/31 12:34:51;;;;;;;5.68;2.13;;;;;;;13.40;25.52;99563.09;5078089;28;20028;-22
2022/01/31 12:37:22;;;;;;;4.97;1.55;;;;;;;13.08;24.87;99574.44;5076915;28;20162;-21
2022/01/31 12:40:02;;;;;;;5.13;1.55;;;;;;;13.34;24.41;99562.25;5077480;28;20020;-21
2022/01/31 12:45:22;;;;;;;6.78;1.98;;;;;;;14.34;24.44;99543.09;5076335;28;20032;-22
2022/01/31 12:48:06;;;;;;;9.07;2.50;;;;;;;14.69;25.44;99541.81;5077816;28;20486;-21
2022/01/31 12:50:33;;;;;;;7.18;1.88;;;;;;;13.65;25.29;99533.91;5060531;28;20025;-20
2022/01/31 12:53:04;;;;;;;7.18;2.30;;;;;;;13.31;24.89;99535.13;5076284;28;20116;-22
2022/01/31 12:55:30;;;;;;;6.22;2.03;;;;;;;13.33;24.00;99519.63;5078452;28;20559;-20
2022/01/31 12:57:55;;;;;;;8.10;2.10;;;;;;;13.58;23.64;99517.22;5060523;28;20051;-21
2022/01/31 13:00:41;;;;;;;7.38;2.47;;;;;;;14.98;23.33;99546.78;5059387;28;20024;-21
2022/01/31 13:03:07;;;;;;;7.05;2.22;;;;;;;13.92;22.88;99538.47;5078720;28;20028;-20
2022/01/31 13:05:34;;;;;;;5.07;1.85;;;;;;;14.46;22.77;99542.94;5059128;28;20400;-21
2022/01/31 13:07:59;;;;;;;6.43;2.58;;;;;;;14.55;23.27;99546.75;5076897;28;20059;-21
2022/01/31 13:10:25;;;;;;;7.47;2.70;;;;;;;14.56;22.00;99542.22;5060593;28;20402;-21
2022/01/31 13:13:00;;;;;;;7.03;2.53;;;;;;;14.49;22.32;99541.63;5077495;28;20035;-20
2022/01/31 13:15:26;;;;;;;5.53;1.70;;;;;;;15.27;21.55;99531.06;5079967;28;20502;-20
2022/01/31 13:18:02;;;;;;;6.70;1.88;;;;;;;15.19;21.31;99518.16;5060476;28;20024;-22
2022/01/31 13:20:27;;;;;;;6.03;2.00;;;;;;;15.73;20.46;99495.47;5077262;28;20028;-20
2022/01/31 13:22:53;;;;;;;7.25;2.88;;;;;;;16.01;21.21;99492.28;5078489;28;20093;-22
2022/01/31 13:25:18;;;;;;;12.32;6.13;;;;;;;15.12;21.01;99464.69;5087270;28;20035;-21
2022/01/31 13:27:45;;;;;;;13.63;5.05;;;;;;;15.53;20.87;99459.41;5081300;28;20032;-20
2022/01/31 13:30:12;;;;;;;8.95;3.38;;;;;;;16.07;20.82;99453.53;5066379;28;20020;-22
2022/01/31 13:32:38;;;;;;;9.13;2.70;;;;;;;16.06;20.39;99440.38;5086559;28;20028;-21
2022/01/31 13:35:09;;;;;;;6.18;2.20;;;;;;;15.21;20.44;99448.84;5087767;28;20028;-21
2022/01/31 13:37:36;;;;;;;6.32;2.03;;;;;;;15.39;20.10;99469.06;5087549;28;20528;-20
2022/01/31 13:40:05;;;;;;;8.85;2.30;;;;;;;15.67;20.50;99465.88;5083392;28;20046;-21
2022/01/31 13:42:37;;;;;;;8.07;2.70;;;;;;;15.56;20.27;99480.38;5066917;28;20032;-21
2022/01/31 13:45:19;;;;;;;7.18;2.80;;;;;;;16.53;19.25;99481.47;5066750;28;20033;-20
2022/01/31 13:50:38;;;;;;;9.82;3.55;;;;;;;15.79;20.43;99467.53;5066853;28;20036;-21
2022/01/31 13:53:06;;;;;;;11.43;4.05;;;;;;;16.78;20.22;99476.03;5049412;28;20921;-20
2022/01/31 13:55:32;;;;;;;13.77;5.45;;;;;;;16.72;19.81;99469.03;5066621;28;20120;-22
2022/01/31 13:57:57;;;;;;;12.65;5.68;;;;;;;16.56;19.86;99470.16;5066158;28;20125;-23
2022/01/31 14:00:23;;;;;;;11.88;5.00;;;;;;;15.71;20.83;99457.28;5049077;28;20071;-21
2022/01/31 14:02:59;;;;;;;11.57;4.25;;;;;;;15.84;20.22;99465.66;5066477;28;20032;-21
2022/01/31 14:05:25;;;;;;;11.65;4.15;;;;;;;15.95;20.64;99454.91;5065670;28;20032;-22
2022/01/31 14:08:13;;;;;;;9.38;3.65;;;;;;;15.48;21.24;99446.75;5079923;28;20038;-20
2022/01/31 14:10:39;;;;;;;11.48;4.60;;;;;;;15.31;21.53;99426.59;5086955;28;20050;-21
2022/01/31 14:13:06;;;;;;;7.18;2.85;;;;;;;14.78;20.92;99422.13;5068495;28;20031;-22
2022/01/31 14:15:43;;;;;;;8.70;2.90;;;;;;;15.22;21.39;99443.22;5086665;28;20550;-22
2022/01/31 14:18:10;;;;;;;8.98;2.75;;;;;;;14.96;21.11;99430.81;5065846;28;20507;-21
2022/01/31 14:20:35;;;;;;;7.38;2.78;;;;;;;14.20;22.22;99442.69;5048757;28;20036;-22